Time;durP1;ratioP1;P1;durP2;ratioP2;P2;SDS_P1;SDS_P2;PMS_P1;PMS_P2;Temp;Humidity;BMP_temperature;BMP_pressure;BME280_temperature;BME280_humidity;BME280_pressure;Samples;Min_cycle;Max_cycle;Signal;HPM_P1;HPM_P2
2022/08/16 00:00:12;;;;;;;1.65;1.55;;;;;;;;;;5051545;28;20400;-88
2022/08/16 00:02:38;;;;;;;1.60;1.50;;;;;;;;;;5051868;28;20924;-89
2022/08/16 00:05:05;;;;;;;2.28;1.60;;;;;;;;;;5051736;28;20769;-90
2022/08/16 00:07:31;;;;;;;1.70;1.50;;;;;;;;;;5051567;28;20409;-89
2022/08/16 00:09:58;;;;;;;1.70;1.60;;;;;;;;;;5051588;28;20412;-88
2022/08/16 00:12:24;;;;;;;1.50;1.40;;;;;;;;;;5051568;28;20381;-88
2022/08/16 00:14:50;;;;;;;1.93;1.83;;;;;;;;;;5051488;28;20373;-88
2022/08/16 00:17:16;;;;;;;1.70;1.60;;;;;;;;;;5033567;28;20804;-89
2022/08/16 00:19:42;;;;;;;2.00;1.60;;;;;;;;;;5051427;28;20382;-89
2022/08/16 00:22:09;;;;;;;1.88;1.50;;;;;;;;;;5051222;28;20393;-88
2022/08/16 00:24:35;;;;;;;1.63;1.52;;;;;;;;;;5051467;28;20385;-88
2022/08/16 00:27:02;;;;;;;1.80;1.60;;;;;;;;;;5033387;28;20819;-89
2022/08/16 00:29:28;;;;;;;2.07;1.70;;;;;;;;;;5051229;28;20401;-89
2022/08/16 00:31:54;;;;;;;2.03;1.85;;;;;;;;;;5053628;28;20377;-89
2022/08/16 00:34:21;;;;;;;1.60;1.50;;;;;;;;;;5035103;28;20391;-88
2022/08/16 00:36:48;;;;;;;1.58;1.48;;;;;;;;;;5034993;28;20379;-89
2022/08/16 00:39:15;;;;;;;1.70;1.50;;;;;;;;;;5034804;28;20379;-90
2022/08/16 00:41:41;;;;;;;1.63;1.52;;;;;;;;;;5034791;28;20865;-88
2022/08/16 00:44:10;;;;;;;1.80;1.70;;;;;;;;;;5034843;28;20920;-88
2022/08/16 00:46:56;;;;;;;1.85;1.67;;;;;;;;;;5034555;28;20403;-89
2022/08/16 00:49:23;;;;;;;1.88;1.77;;;;;;;;;;5037001;28;20390;-88
2022/08/16 00:51:50;;;;;;;1.75;1.65;;;;;;;;;;5034676;28;20379;-89
2022/08/16 00:54:16;;;;;;;1.73;1.63;;;;;;;;;;5034115;28;20427;-87
2022/08/16 00:56:43;;;;;;;1.85;1.75;;;;;;;;;;5034435;28;20391;-88
2022/08/16 00:59:10;;;;;;;1.80;1.70;;;;;;;;;;5034141;28;20375;-90
2022/08/16 01:01:36;;;;;;;2.08;1.98;;;;;;;;;;5034473;28;20383;-89
2022/08/16 01:04:03;;;;;;;2.50;2.30;;;;;;;;;;5034346;28;20495;-90
2022/08/16 01:06:29;;;;;;;2.72;2.53;;;;;;;;;;5034169;28;20399;-88
2022/08/16 01:08:56;;;;;;;2.50;2.30;;;;;;;;;;5048546;28;20381;-89
2022/08/16 01:11:23;;;;;;;2.30;2.10;;;;;;;;;;5054152;28;20412;-88
2022/08/16 01:13:50;;;;;;;2.50;2.30;;;;;;;;;;5053989;28;20385;-89
2022/08/16 01:16:19;;;;;;;2.30;2.10;;;;;;;;;;5054115;28;20378;-87
2022/08/16 01:18:45;;;;;;;2.20;2.00;;;;;;;;;;5053963;28;20397;-87
2022/08/16 01:21:11;;;;;;;2.20;2.00;;;;;;;;;;5053979;28;20385;-88
2022/08/16 01:23:54;;;;;;;2.28;1.70;;;;;;;;;;5034437;28;20389;-88
2022/08/16 01:26:21;;;;;;;2.10;2.00;;;;;;;;;;5053100;28;20404;-89
2022/08/16 01:28:47;;;;;;;1.80;1.70;;;;;;;;;;5049439;28;20413;-89
2022/08/16 01:31:14;;;;;;;2.77;1.83;;;;;;;;;;5052313;28;20859;-88
2022/08/16 01:33:40;;;;;;;2.00;1.75;;;;;;;;;;5052438;28;20862;-90
2022/08/16 01:36:08;;;;;;;2.00;1.90;;;;;;;;;;5052416;28;20389;-89
2022/08/16 01:38:38;;;;;;;2.30;2.10;;;;;;;;;;5052819;28;20408;-89
2022/08/16 01:41:17;;;;;;;1.92;1.83;;;;;;;;;;5052229;28;20373;-89
2022/08/16 01:43:44;;;;;;;2.10;1.95;;;;;;;;;;5051527;28;20408;-89
2022/08/16 01:46:19;;;;;;;2.20;2.00;;;;;;;;;;5052560;28;20447;-89
2022/08/16 01:48:45;;;;;;;2.15;2.00;;;;;;;;;;5052428;28;20385;-89
2022/08/16 01:51:13;;;;;;;2.20;2.00;;;;;;;;;;5053417;28;20393;-90
2022/08/16 01:53:39;;;;;;;1.95;1.85;;;;;;;;;;5053426;28;20384;-89
2022/08/16 01:56:05;;;;;;;2.20;2.00;;;;;;;;;;5035334;28;20724;-88
2022/08/16 01:58:31;;;;;;;2.38;1.83;;;;;;;;;;5053517;28;20463;-89
2022/08/16 02:00:57;;;;;;;2.33;2.10;;;;;;;;;;5053383;28;20386;-90
2022/08/16 02:03:23;;;;;;;2.00;1.90;;;;;;;;;;5053087;28;20392;-89
2022/08/16 02:05:49;;;;;;;2.00;1.83;;;;;;;;;;5053049;28;20381;-89
2022/08/16 02:08:15;;;;;;;2.75;2.05;;;;;;;;;;5035074;28;20933;-88
2022/08/16 02:10:42;;;;;;;2.00;1.90;;;;;;;;;;5053013;28;20373;-88
2022/08/16 02:13:08;;;;;;;2.13;2.00;;;;;;;;;;5052998;28;20381;-89
2022/08/16 02:15:35;;;;;;;2.15;2.03;;;;;;;;;;5052884;28;20385;-89
2022/08/16 02:18:01;;;;;;;1.98;1.88;;;;;;;;;;5052737;28;20871;-90
2022/08/16 02:20:29;;;;;;;2.15;1.95;;;;;;;;;;5046351;28;20535;-89
2022/08/16 02:22:56;;;;;;;2.17;1.98;;;;;;;;;;5048470;28;20405;-88
2022/08/16 02:25:22;;;;;;;2.20;2.00;;;;;;;;;;5051045;28;20431;-89
2022/08/16 02:27:48;;;;;;;1.98;1.85;;;;;;;;;;5050849;28;20413;-89
2022/08/16 02:30:17;;;;;;;2.13;1.98;;;;;;;;;;5051047;28;20412;-89
2022/08/16 02:32:43;;;;;;;2.83;1.90;;;;;;;;;;5052648;28;20378;-89
2022/08/16 02:35:10;;;;;;;2.10;1.90;;;;;;;;;;5052565;28;20869;-90
2022/08/16 02:37:36;;;;;;;2.35;2.20;;;;;;;;;;5052510;28;20401;-89
2022/08/16 02:40:04;;;;;;;2.50;2.30;;;;;;;;;;5052494;28;20400;-88
2022/08/16 02:42:30;;;;;;;2.65;2.45;;;;;;;;;;5052478;28;20451;-90
2022/08/16 02:44:56;;;;;;;2.55;2.35;;;;;;;;;;5052340;28;20728;-89
2022/08/16 02:47:22;;;;;;;3.00;2.70;;;;;;;;;;5052382;28;20408;-90
2022/08/16 02:49:48;;;;;;;2.80;2.60;;;;;;;;;;5052364;28;20455;-88
2022/08/16 02:52:15;;;;;;;2.40;2.30;;;;;;;;;;5049104;28;20390;-90
2022/08/16 02:54:41;;;;;;;3.08;2.88;;;;;;;;;;5035798;28;20383;-89
2022/08/16 02:57:07;;;;;;;3.08;2.75;;;;;;;;;;5032196;28;20394;-88
2022/08/16 02:59:33;;;;;;;3.42;3.17;;;;;;;;;;5032294;28;20390;-89
2022/08/16 03:01:59;;;;;;;3.22;3.03;;;;;;;;;;5032321;28;20379;-89
2022/08/16 03:04:25;;;;;;;2.80;2.58;;;;;;;;;;5014463;28;20380;-89
2022/08/16 03:06:52;;;;;;;3.22;3.00;;;;;;;;;;5032096;28;20449;-89
2022/08/16 03:09:18;;;;;;;2.90;2.70;;;;;;;;;;5032212;28;20432;-89
2022/08/16 03:11:44;;;;;;;2.80;2.60;;;;;;;;;;5032397;28;20501;-88
2022/08/16 03:14:11;;;;;;;3.17;2.97;;;;;;;;;;5042227;28;20720;-89
2022/08/16 03:16:37;;;;;;;2.90;2.70;;;;;;;;;;5052222;28;20843;-89
2022/08/16 03:19:03;;;;;;;2.80;2.60;;;;;;;;;;5052347;28;20420;-87
2022/08/16 03:21:31;;;;;;;2.55;2.35;;;;;;;;;;5052003;28;20388;-88
2022/08/16 03:23:57;;;;;;;2.63;2.43;;;;;;;;;;5051836;28;20396;-89
2022/08/16 03:26:23;;;;;;;3.00;2.70;;;;;;;;;;5051809;28;20381;-89
2022/08/16 03:28:49;;;;;;;2.33;2.13;;;;;;;;;;5051869;28;20432;-88
2022/08/16 03:31:15;;;;;;;2.92;2.55;;;;;;;;;;5052168;28;20428;-90
2022/08/16 03:33:41;;;;;;;2.67;2.47;;;;;;;;;;5051847;28;20389;-89
2022/08/16 03:36:07;;;;;;;2.60;2.40;;;;;;;;;;5051706;28;20395;-88
2022/08/16 03:38:34;;;;;;;2.58;2.38;;;;;;;;;;5051856;28;20379;-89
2022/08/16 03:41:01;;;;;;;2.60;2.40;;;;;;;;;;5051751;28;20385;-88
2022/08/16 03:43:28;;;;;;;2.80;2.60;;;;;;;;;;5051796;28;20385;-89
2022/08/16 03:45:56;;;;;;;2.60;2.40;;;;;;;;;;5051699;28;20897;-88
2022/08/16 03:48:22;;;;;;;2.72;2.53;;;;;;;;;;5053431;28;20816;-89
2022/08/16 03:50:48;;;;;;;2.65;2.45;;;;;;;;;;5051739;28;20378;-89
2022/08/16 03:53:15;;;;;;;2.65;2.45;;;;;;;;;;5051632;28;20516;-88
2022/08/16 03:55:41;;;;;;;2.60;2.40;;;;;;;;;;5051137;28;20374;-90
2022/08/16 03:58:07;;;;;;;2.90;2.70;;;;;;;;;;5051896;28;20385;-88
2022/08/16 04:00:33;;;;;;;2.78;2.58;;;;;;;;;;5051620;28;20409;-90
2022/08/16 04:03:06;;;;;;;3.28;2.97;;;;;;;;;;5051635;28;20377;-88
2022/08/16 04:05:33;;;;;;;2.67;2.50;;;;;;;;;;5052719;28;20851;-88
2022/08/16 04:07:59;;;;;;;3.00;2.80;;;;;;;;;;5054289;28;20409;-88
2022/08/16 04:10:25;;;;;;;2.80;2.60;;;;;;;;;;5045055;28;20402;-88
2022/08/16 04:12:51;;;;;;;2.70;2.50;;;;;;;;;;5017071;28;20737;-88
2022/08/16 04:15:17;;;;;;;2.90;2.70;;;;;;;;;;5052334;28;20377;-88
2022/08/16 04:17:44;;;;;;;2.40;2.30;;;;;;;;;;5054883;28;20381;-88
2022/08/16 04:20:12;;;;;;;3.00;2.80;;;;;;;;;;5037130;28;20920;-89
2022/08/16 04:22:38;;;;;;;2.92;2.63;;;;;;;;;;5037106;28;20739;-90
2022/08/16 04:25:05;;;;;;;3.10;2.90;;;;;;;;;;5054201;28;20396;-90
2022/08/16 04:27:31;;;;;;;2.90;2.60;;;;;;;;;;5054887;28;20916;-90
2022/08/16 04:29:57;;;;;;;3.05;2.85;;;;;;;;;;5054764;28;20447;-88
2022/08/16 04:32:23;;;;;;;2.80;2.60;;;;;;;;;;5054846;28;20388;-91
2022/08/16 04:34:49;;;;;;;2.70;2.50;;;;;;;;;;5053941;28;20476;-89
2022/08/16 04:37:15;;;;;;;2.72;2.53;;;;;;;;;;5053851;28;20397;-88
2022/08/16 04:39:41;;;;;;;3.00;2.80;;;;;;;;;;5054974;28;20431;-89
2022/08/16 04:42:07;;;;;;;2.83;2.63;;;;;;;;;;5054712;28;20382;-89
2022/08/16 04:44:33;;;;;;;2.80;2.60;;;;;;;;;;5054633;28;20378;-88
2022/08/16 04:46:59;;;;;;;2.88;2.67;;;;;;;;;;5051497;28;20416;-89
2022/08/16 04:49:25;;;;;;;2.97;2.78;;;;;;;;;;5039738;28;20733;-90
2022/08/16 04:51:51;;;;;;;2.90;2.70;;;;;;;;;;5034682;28;20852;-89
2022/08/16 04:54:18;;;;;;;2.90;2.70;;;;;;;;;;5034611;28;20455;-89
2022/08/16 04:56:44;;;;;;;3.00;2.75;;;;;;;;;;5034507;28;20939;-89
2022/08/16 04:59:10;;;;;;;3.70;2.85;;;;;;;;;;5034751;28;20707;-89
2022/08/16 05:01:37;;;;;;;2.83;2.63;;;;;;;;;;5051327;28;20405;-90
2022/08/16 05:04:03;;;;;;;3.05;2.75;;;;;;;;;;5051135;28;20393;-89
2022/08/16 05:06:29;;;;;;;3.00;2.80;;;;;;;;;;5049254;28;20432;-89
2022/08/16 05:08:55;;;;;;;3.08;2.88;;;;;;;;;;5036352;28;20438;-90
2022/08/16 05:11:23;;;;;;;3.28;3.08;;;;;;;;;;5039694;28;20459;-90
2022/08/16 05:13:50;;;;;;;3.28;2.97;;;;;;;;;;5041398;28;20427;-91
2022/08/16 05:16:18;;;;;;;3.15;2.85;;;;;;;;;;5036114;28;20431;-89
2022/08/16 05:18:44;;;;;;;3.35;3.10;;;;;;;;;;5036142;28;20405;-90
2022/08/16 05:21:11;;;;;;;2.90;2.70;;;;;;;;;;5032935;28;20390;-88
2022/08/16 05:23:36;;;;;;;3.35;3.15;;;;;;;;;;5049565;28;20390;-88
2022/08/16 05:26:02;;;;;;;3.10;2.90;;;;;;;;;;5033074;28;20403;-85
2022/08/16 05:28:28;;;;;;;3.20;3.00;;;;;;;;;;5051348;28;20410;-88
2022/08/16 05:30:55;;;;;;;3.20;2.90;;;;;;;;;;5052406;28;20390;-89
2022/08/16 05:33:21;;;;;;;3.03;2.83;;;;;;;;;;5052860;28;20461;-89
2022/08/16 05:35:48;;;;;;;3.33;3.10;;;;;;;;;;5052271;28;20743;-86
2022/08/16 05:38:14;;;;;;;3.00;2.80;;;;;;;;;;5043228;28;20964;-91
2022/08/16 05:40:41;;;;;;;3.15;2.95;;;;;;;;;;5015946;28;20425;-89
2022/08/16 05:43:07;;;;;;;3.60;3.30;;;;;;;;;;5029810;28;20394;-89
2022/08/16 05:45:33;;;;;;;3.20;3.00;;;;;;;;;;5044439;28;20385;-89
2022/08/16 05:47:59;;;;;;;3.47;3.17;;;;;;;;;;5019256;28;20757;-90
2022/08/16 05:50:25;;;;;;;3.72;3.53;;;;;;;;;;5020491;28;20390;-91
2022/08/16 05:52:52;;;;;;;3.57;3.27;;;;;;;;;;5051971;28;20392;-86
2022/08/16 05:55:18;;;;;;;3.35;3.15;;;;;;;;;;5035466;28;20381;-91
2022/08/16 05:57:45;;;;;;;3.70;3.50;;;;;;;;;;5035294;28;20451;-89
2022/08/16 06:00:13;;;;;;;3.53;3.22;;;;;;;;;;5053343;28;20439;-88
2022/08/16 06:02:39;;;;;;;3.60;3.33;;;;;;;;;;5053293;28;20444;-88
2022/08/16 06:05:06;;;;;;;3.60;3.30;;;;;;;;;;5053059;28;20400;-91
2022/08/16 06:07:32;;;;;;;5.20;3.50;;;;;;;;;;5053079;28;20491;-87
2022/08/16 06:09:58;;;;;;;3.78;3.47;;;;;;;;;;5053082;28;20382;-88
2022/08/16 06:12:25;;;;;;;4.07;3.30;;;;;;;;;;5053070;28;20377;-88
2022/08/16 06:14:51;;;;;;;3.80;3.50;;;;;;;;;;5052944;28;20431;-89
2022/08/16 06:17:18;;;;;;;3.45;3.10;;;;;;;;;;5053005;28;20378;-86
2022/08/16 06:19:44;;;;;;;4.25;3.90;;;;;;;;;;5052857;28;20411;-89
2022/08/16 06:22:10;;;;;;;4.22;3.70;;;;;;;;;;5052739;28;20386;-88
2022/08/16 06:24:37;;;;;;;4.13;3.83;;;;;;;;;;5052694;28;20381;-88
2022/08/16 06:27:03;;;;;;;4.22;3.88;;;;;;;;;;5050873;28;20405;-88
2022/08/16 06:29:29;;;;;;;3.97;3.58;;;;;;;;;;5051938;28;20397;-87
2022/08/16 06:31:55;;;;;;;3.95;3.65;;;;;;;;;;5052541;28;20409;-87
2022/08/16 06:34:21;;;;;;;4.10;3.75;;;;;;;;;;5034592;28;20453;-88
2022/08/16 06:36:47;;;;;;;4.27;3.97;;;;;;;;;;5051701;28;20862;-89
2022/08/16 06:39:13;;;;;;;3.63;3.40;;;;;;;;;;5050037;28;20389;-88
2022/08/16 06:41:39;;;;;;;3.88;3.58;;;;;;;;;;5051336;28;20878;-88
2022/08/16 06:44:05;;;;;;;4.00;3.70;;;;;;;;;;5051113;28;20404;-89
2022/08/16 06:46:34;;;;;;;4.50;4.20;;;;;;;;;;5051851;28;20385;-88
2022/08/16 06:49:04;;;;;;;5.90;5.43;;;;;;;;;;5048666;28;20859;-88
2022/08/16 06:51:30;;;;;;;6.10;5.60;;;;;;;;;;5049130;28;21027;-87
2022/08/16 06:53:56;;;;;;;5.55;5.15;;;;;;;;;;5051430;28;20846;-87
2022/08/16 06:56:22;;;;;;;5.75;5.32;;;;;;;;;;5051043;28;20393;-87
2022/08/16 06:58:48;;;;;;;6.30;5.80;;;;;;;;;;5051147;28;20410;-89
2022/08/16 07:01:14;;;;;;;6.10;5.60;;;;;;;;;;5045056;28;20556;-87
2022/08/16 07:03:40;;;;;;;7.13;6.63;;;;;;;;;;5043212;28;20395;-88
2022/08/16 07:06:06;;;;;;;6.57;6.00;;;;;;;;;;5046910;28;20385;-91
2022/08/16 07:08:32;;;;;;;7.10;6.57;;;;;;;;;;5037331;28;20463;-88
2022/08/16 07:10:59;;;;;;;7.38;6.88;;;;;;;;;;5047317;28;20390;-89
2022/08/16 07:13:25;;;;;;;7.35;6.80;;;;;;;;;;5045147;28;20386;-91
2022/08/16 07:15:51;;;;;;;9.70;6.70;;;;;;;;;;5034520;28;20377;-91
2022/08/16 07:18:19;;;;;;;6.55;6.05;;;;;;;;;;5052364;28;20385;-89
2022/08/16 07:20:45;;;;;;;6.30;5.90;;;;;;;;;;5034396;28;20793;-90
2022/08/16 07:23:11;;;;;;;7.57;6.97;;;;;;;;;;5051810;28;20381;-91
2022/08/16 07:25:37;;;;;;;6.68;6.07;;;;;;;;;;5051193;28;20389;-92
2022/08/16 07:28:04;;;;;;;6.65;6.15;;;;;;;;;;5052060;28;20901;-88
2022/08/16 07:30:30;;;;;;;6.72;6.18;;;;;;;;;;5051991;28;20392;-91
2022/08/16 07:32:56;;;;;;;6.53;5.95;;;;;;;;;;5052038;28;20397;-91
2022/08/16 07:35:22;;;;;;;6.73;6.20;;;;;;;;;;5051947;28;20463;-90
2022/08/16 07:37:48;;;;;;;6.88;6.38;;;;;;;;;;5052247;28;20452;-91
2022/08/16 07:40:15;;;;;;;6.82;6.22;;;;;;;;;;5054653;28;20850;-90
2022/08/16 07:42:41;;;;;;;6.95;6.25;;;;;;;;;;5055887;28;20397;-91
2022/08/16 07:45:07;;;;;;;6.60;6.10;;;;;;;;;;5056122;28;20373;-90
2022/08/16 07:47:34;;;;;;;5.88;5.38;;;;;;;;;;5055834;28;20441;-91
2022/08/16 07:50:00;;;;;;;6.82;6.05;;;;;;;;;;5036366;28;20429;-91
2022/08/16 07:52:27;;;;;;;6.47;5.30;;;;;;;;;;5019751;28;20389;-91
2022/08/16 07:54:53;;;;;;;4.63;4.22;;;;;;;;;;5051928;28;20780;-92
2022/08/16 07:57:19;;;;;;;7.07;5.20;;;;;;;;;;5035915;28;20394;-92
2022/08/16 07:59:45;;;;;;;5.15;4.75;;;;;;;;;;5037659;28;20454;-91
2022/08/16 08:02:12;;;;;;;5.28;4.78;;;;;;;;;;5055800;28;20424;-91
2022/08/16 08:04:39;;;;;;;4.63;4.07;;;;;;;;;;5037753;28;20871;-93
2022/08/16 08:07:05;;;;;;;5.00;4.60;;;;;;;;;;5049523;28;20405;-90
2022/08/16 08:09:31;;;;;;;4.60;4.10;;;;;;;;;;5048017;28;20457;-91
2022/08/16 08:11:58;;;;;;;5.65;3.90;;;;;;;;;;5037207;28;20520;-91
2022/08/16 08:14:24;;;;;;;3.97;3.67;;;;;;;;;;5035742;28;20438;-91
2022/08/16 08:16:52;;;;;;;4.13;3.80;;;;;;;;;;5038018;28;20387;-91
2022/08/16 08:19:18;;;;;;;4.95;3.72;;;;;;;;;;5046733;28;20379;-91
2022/08/16 08:21:45;;;;;;;4.32;3.70;;;;;;;;;;5050146;28;20443;-91
2022/08/16 08:24:13;;;;;;;5.28;3.47;;;;;;;;;;5048304;28;20409;-90
2022/08/16 08:26:40;;;;;;;3.15;2.95;;;;;;;;;;5048859;28;20412;-92
2022/08/16 08:29:06;;;;;;;3.67;3.37;;;;;;;;;;5054897;28;20393;-92
2022/08/16 08:31:35;;;;;;;4.18;3.30;;;;;;;;;;5055415;28;20465;-91
2022/08/16 08:34:01;;;;;;;3.70;3.10;;;;;;;;;;5048174;28;20429;-90
2022/08/16 08:36:32;;;;;;;4.70;3.22;;;;;;;;;;5035331;28;20740;-90
2022/08/16 08:38:58;;;;;;;3.78;3.38;;;;;;;;;;5033948;28;20709;-90
2022/08/16 08:41:27;;;;;;;3.33;3.03;;;;;;;;;;5046632;28;20444;-90
2022/08/16 08:43:54;;;;;;;3.20;3.00;;;;;;;;;;5046286;28;20890;-91
2022/08/16 08:46:20;;;;;;;3.20;2.88;;;;;;;;;;5037608;28;20405;-90
2022/08/16 08:48:47;;;;;;;3.40;3.03;;;;;;;;;;5035039;28;20433;-92
2022/08/16 08:51:16;;;;;;;3.15;2.85;;;;;;;;;;5034195;28;20772;-90
2022/08/16 08:53:42;;;;;;;3.20;2.90;;;;;;;;;;5042799;28;20369;-91
2022/08/16 08:56:08;;;;;;;3.33;3.03;;;;;;;;;;5054650;28;20384;-90
2022/08/16 08:58:35;;;;;;;4.03;2.78;;;;;;;;;;5048752;28;20379;-91
2022/08/16 09:01:01;;;;;;;2.90;2.70;;;;;;;;;;5046931;28;20388;-89
2022/08/16 09:03:27;;;;;;;3.20;2.90;;;;;;;;;;5040744;28;20413;-90
2022/08/16 09:05:53;;;;;;;2.90;2.70;;;;;;;;;;5044177;28;20413;-93
2022/08/16 09:08:19;;;;;;;3.90;2.80;;;;;;;;;;5034744;28;20419;-91
2022/08/16 09:10:46;;;;;;;3.63;2.85;;;;;;;;;;5043660;28;20412;-92
2022/08/16 09:13:12;;;;;;;4.03;2.75;;;;;;;;;;5025568;28;20716;-93
2022/08/16 09:15:39;;;;;;;3.38;2.50;;;;;;;;;;5049753;28;20383;-93
2022/08/16 09:18:05;;;;;;;3.03;2.72;;;;;;;;;;5049374;28;20477;-92
2022/08/16 09:20:32;;;;;;;3.40;2.90;;;;;;;;;;5036106;28;20383;-93
2022/08/16 09:22:58;;;;;;;3.85;2.83;;;;;;;;;;5045441;28;20851;-91
2022/08/16 09:25:27;;;;;;;3.42;2.65;;;;;;;;;;5051594;28;20388;-91
2022/08/16 09:27:53;;;;;;;4.03;2.47;;;;;;;;;;5043913;28;20416;-91
2022/08/16 09:30:19;;;;;;;3.00;2.70;;;;;;;;;;5040467;28;20384;-91
2022/08/16 09:32:45;;;;;;;2.50;2.30;;;;;;;;;;5054635;28;20378;-92
2022/08/16 09:35:11;;;;;;;3.83;2.72;;;;;;;;;;5041200;28;20379;-91
2022/08/16 09:37:37;;;;;;;3.07;2.77;;;;;;;;;;5048563;28;20447;-92
2022/08/16 09:40:05;;;;;;;2.70;2.50;;;;;;;;;;5046136;28;20735;-91
2022/08/16 09:42:31;;;;;;;2.67;2.38;;;;;;;;;;5050419;28;20385;-92
2022/08/16 09:45:03;;;;;;;3.47;2.47;;;;;;;;;;5460009;22;20544;-92
2022/08/16 09:47:39;;;;;;;3.10;2.45;;;;;;;;;;5074343;28;20411;-91
2022/08/16 09:50:06;;;;;;;2.60;2.40;;;;;;;;;;5073026;28;20437;-92
2022/08/16 09:52:36;;;;;;;2.65;2.45;;;;;;;;;;5074122;28;20384;-91
2022/08/16 09:55:09;;;;;;;2.55;2.38;;;;;;;;;;5056827;28;20414;-92
2022/08/16 09:57:36;;;;;;;5.25;2.53;;;;;;;;;;5074144;28;20379;-92
2022/08/16 10:00:05;;;;;;;2.60;2.40;;;;;;;;;;5073645;28;20371;-90
2022/08/16 10:02:32;;;;;;;3.30;2.58;;;;;;;;;;5073769;28;20391;-91
2022/08/16 10:04:58;;;;;;;2.90;2.60;;;;;;;;;;5073558;28;20391;-92
2022/08/16 10:07:25;;;;;;;2.67;2.47;;;;;;;;;;5073351;28;20456;-92
2022/08/16 10:09:52;;;;;;;2.70;2.50;;;;;;;;;;5073428;28;20376;-92
2022/08/16 10:15:02;;;;;;;2.97;2.53;;;;;;;;;;5073369;28;20549;-93
2022/08/16 10:17:28;;;;;;;2.63;2.42;;;;;;;;;;5073242;28;20387;-90
2022/08/16 10:19:54;;;;;;;2.90;2.60;;;;;;;;;;5073231;28;20383;-91
2022/08/16 10:22:21;;;;;;;3.25;2.67;;;;;;;;;;5073222;28;20380;-91
2022/08/16 10:24:47;;;;;;;3.30;2.30;;;;;;;;;;5072390;28;20380;-91
2022/08/16 10:27:14;;;;;;;3.83;2.17;;;;;;;;;;5069099;28;20758;-92
2022/08/16 10:29:40;;;;;;;3.80;2.28;;;;;;;;;;5059353;28;20404;-91
2022/08/16 10:32:09;;;;;;;3.15;2.40;;;;;;;;;;5061757;28;20370;-91
2022/08/16 10:34:35;;;;;;;2.30;2.10;;;;;;;;;;5078684;28;20745;-91
2022/08/16 10:37:01;;;;;;;2.40;2.20;;;;;;;;;;5072554;28;20818;-91
2022/08/16 10:39:27;;;;;;;3.28;2.25;;;;;;;;;;5072609;28;20384;-91
2022/08/16 10:41:53;;;;;;;2.63;2.30;;;;;;;;;;5061956;28;20762;-92
2022/08/16 10:44:22;;;;;;;2.05;1.95;;;;;;;;;;5068217;28;20376;-91
2022/08/16 10:46:48;;;;;;;2.42;1.90;;;;;;;;;;5073104;28;20403;-91
2022/08/16 10:49:14;;;;;;;3.25;2.00;;;;;;;;;;5072762;28;20376;-91
2022/08/16 10:51:40;;;;;;;2.65;2.00;;;;;;;;;;5066011;28;20753;-91
2022/08/16 10:54:07;;;;;;;4.18;2.10;;;;;;;;;;5060855;28;20477;-91
2022/08/16 10:56:33;;;;;;;3.10;2.10;;;;;;;;;;5063259;28;20364;-91
2022/08/16 10:58:59;;;;;;;2.35;2.15;;;;;;;;;;5063974;28;20832;-89
2022/08/16 11:01:26;;;;;;;2.40;2.10;;;;;;;;;;5061673;28;20893;-90
2022/08/16 11:03:52;;;;;;;2.30;2.10;;;;;;;;;;5066344;28;20385;-91
2022/08/16 11:06:19;;;;;;;4.15;1.90;;;;;;;;;;5041831;28;20430;-90
2022/08/16 11:08:45;;;;;;;3.07;2.27;;;;;;;;;;5054477;28;20764;-91
2022/08/16 11:11:13;;;;;;;4.20;2.47;;;;;;;;;;5072381;28;20391;-90
2022/08/16 11:13:39;;;;;;;2.95;2.05;;;;;;;;;;5071533;28;20445;-90
2022/08/16 11:16:06;;;;;;;2.08;1.92;;;;;;;;;;5071794;28;20556;-90
2022/08/16 11:18:32;;;;;;;2.83;1.98;;;;;;;;;;5072212;28;20372;-91
2022/08/16 11:20:58;;;;;;;2.47;2.20;;;;;;;;;;5054405;28;20430;-90
2022/08/16 11:23:26;;;;;;;2.70;1.90;;;;;;;;;;5072773;28;20412;-91
2022/08/16 11:25:53;;;;;;;2.17;1.97;;;;;;;;;;5054514;28;20380;-90
2022/08/16 11:28:19;;;;;;;2.33;2.05;;;;;;;;;;5073794;28;20408;-91
2022/08/16 11:30:45;;;;;;;1.90;1.80;;;;;;;;;;5059077;28;20809;-90
2022/08/16 11:33:12;;;;;;;2.25;2.05;;;;;;;;;;5072015;28;20485;-90
2022/08/16 11:35:38;;;;;;;2.47;2.10;;;;;;;;;;5053763;28;20380;-89
2022/08/16 11:38:06;;;;;;;2.20;1.90;;;;;;;;;;5072084;28;20372;-90
2022/08/16 11:40:37;;;;;;;3.80;1.95;;;;;;;;;;5072057;28;20403;-90
2022/08/16 11:43:05;;;;;;;2.20;2.00;;;;;;;;;;5067294;28;20502;-90
2022/08/16 11:45:31;;;;;;;3.33;2.10;;;;;;;;;;5053343;28;20395;-90
2022/08/16 11:47:59;;;;;;;2.35;2.03;;;;;;;;;;5055864;28;20419;-90
2022/08/16 11:50:32;;;;;;;2.20;1.98;;;;;;;;;;5069564;28;20402;-90
2022/08/16 11:52:58;;;;;;;3.20;1.90;;;;;;;;;;5071267;28;20400;-90
2022/08/16 11:55:24;;;;;;;1.88;1.77;;;;;;;;;;5071721;28;20383;-91
2022/08/16 11:57:50;;;;;;;1.92;1.80;;;;;;;;;;5072239;28;20380;-91
2022/08/16 12:00:16;;;;;;;5.05;1.90;;;;;;;;;;5071881;28;20375;-90
2022/08/16 12:02:43;;;;;;;3.60;1.75;;;;;;;;;;5071689;28;20399;-90
2022/08/16 12:05:14;;;;;;;3.35;1.83;;;;;;;;;;5071719;28;20417;-91
2022/08/16 12:07:41;;;;;;;3.43;1.70;;;;;;;;;;5053816;28;20912;-92
2022/08/16 12:10:09;;;;;;;3.60;1.70;;;;;;;;;;5054011;28;20380;-90
2022/08/16 12:12:38;;;;;;;1.98;1.83;;;;;;;;;;5071609;28;20368;-91
2022/08/16 12:15:05;;;;;;;2.10;1.90;;;;;;;;;;5071702;28;20379;-91
2022/08/16 12:17:31;;;;;;;1.90;1.80;;;;;;;;;;5053826;28;20380;-91
2022/08/16 12:19:57;;;;;;;3.20;2.17;;;;;;;;;;5071958;28;20547;-91
2022/08/16 12:22:23;;;;;;;2.97;1.77;;;;;;;;;;5071441;28;20502;-90
2022/08/16 12:24:50;;;;;;;3.40;2.20;;;;;;;;;;5053831;28;20964;-91
2022/08/16 12:27:16;;;;;;;2.22;1.90;;;;;;;;;;5074000;28;20399;-91
2022/08/16 12:29:43;;;;;;;2.20;2.00;;;;;;;;;;5075273;28;20387;-91
2022/08/16 12:32:09;;;;;;;3.17;2.00;;;;;;;;;;5074894;28;20383;-90
2022/08/16 12:34:35;;;;;;;2.20;1.92;;;;;;;;;;5075200;28;20383;-90
2022/08/16 12:37:03;;;;;;;4.60;1.90;;;;;;;;;;5075187;28;20388;-91
2022/08/16 12:39:32;;;;;;;3.22;2.10;;;;;;;;;;5074980;28;20466;-91
2022/08/16 12:41:58;;;;;;;2.55;2.08;;;;;;;;;;5074448;28;20885;-90
2022/08/16 12:44:25;;;;;;;4.28;2.08;;;;;;;;;;5074793;28;20423;-91
2022/08/16 12:49:35;;;;;;;3.40;2.03;;;;;;;;;;5075017;28;20466;-92
2022/08/16 12:52:01;;;;;;;2.78;1.92;;;;;;;;;;5074549;28;20450;-90
2022/08/16 12:54:27;;;;;;;3.17;1.85;;;;;;;;;;5072969;28;20399;-90
2022/08/16 12:56:54;;;;;;;3.15;2.08;;;;;;;;;;5061354;28;20385;-90
2022/08/16 12:59:21;;;;;;;3.75;2.00;;;;;;;;;;5065801;28;20424;-91
2022/08/16 13:01:48;;;;;;;2.10;1.80;;;;;;;;;;5048640;28;20386;-91
2022/08/16 13:04:14;;;;;;;2.90;2.17;;;;;;;;;;5068902;28;20371;-91
2022/08/16 13:06:41;;;;;;;3.88;2.05;;;;;;;;;;5070245;28;20383;-90
2022/08/16 13:09:23;;;;;;;2.22;1.95;;;;;;;;;;5074759;28;20402;-92
2022/08/16 13:12:01;;;;;;;1.90;1.80;;;;;;;;;;5076834;28;20384;-91
2022/08/16 13:14:38;;;;;;;2.92;1.92;;;;;;;;;;5072547;28;20385;-91
2022/08/16 13:17:07;;;;;;;2.67;1.98;;;;;;;;;;5072166;28;20937;-89
2022/08/16 13:19:33;;;;;;;2.40;1.90;;;;;;;;;;5073431;28;20396;-92
2022/08/16 13:21:59;;;;;;;2.90;1.88;;;;;;;;;;5055437;28;20398;-91
2022/08/16 13:24:25;;;;;;;3.60;2.08;;;;;;;;;;5064214;28;20463;-90
2022/08/16 13:26:51;;;;;;;2.67;1.83;;;;;;;;;;5067810;28;20490;-90
2022/08/16 13:29:23;;;;;;;1.90;1.80;;;;;;;;;;5072521;28;21047;-90
2022/08/16 13:31:49;;;;;;;2.47;2.00;;;;;;;;;;5061058;28;20469;-91
2022/08/16 13:34:16;;;;;;;4.30;1.97;;;;;;;;;;5069593;28;20391;-92
2022/08/16 13:36:42;;;;;;;2.33;2.00;;;;;;;;;;5070322;28;20383;-90
2022/08/16 13:39:09;;;;;;;2.47;2.00;;;;;;;;;;5073566;28;20372;-90
2022/08/16 13:41:36;;;;;;;2.90;2.10;;;;;;;;;;5057913;28;20745;-91
2022/08/16 13:44:02;;;;;;;3.37;2.03;;;;;;;;;;5054092;28;20892;-92
2022/08/16 13:46:29;;;;;;;2.27;2.07;;;;;;;;;;5073780;28;20431;-91
2022/08/16 13:48:55;;;;;;;2.22;1.95;;;;;;;;;;5073059;28;20407;-92
2022/08/16 13:51:22;;;;;;;4.13;2.10;;;;;;;;;;5073433;28;20891;-91
2022/08/16 13:53:54;;;;;;;2.80;2.50;;;;;;;;;;5070253;28;20437;-91
2022/08/16 13:56:20;;;;;;;2.33;1.90;;;;;;;;;;5073938;28;20372;-91
2022/08/16 13:58:46;;;;;;;3.25;1.90;;;;;;;;;;5073491;28;20375;-91
2022/08/16 14:01:13;;;;;;;3.03;2.10;;;;;;;;;;5055553;28;20902;-90
2022/08/16 14:03:39;;;;;;;2.20;2.00;;;;;;;;;;5073560;28;20386;-91
2022/08/16 14:06:06;;;;;;;2.33;2.05;;;;;;;;;;5073275;28;20387;-90
2022/08/16 14:08:32;;;;;;;3.33;2.05;;;;;;;;;;5073664;28;20439;-90
2022/08/16 14:11:04;;;;;;;2.60;1.90;;;;;;;;;;5073454;28;20367;-92
2022/08/16 14:13:31;;;;;;;2.40;1.70;;;;;;;;;;5073439;28;20470;-92
2022/08/16 14:15:57;;;;;;;2.70;1.80;;;;;;;;;;5073313;28;20459;-92
2022/08/16 14:18:23;;;;;;;2.00;1.90;;;;;;;;;;5055597;28;20387;-88
2022/08/16 14:20:49;;;;;;;3.60;1.77;;;;;;;;;;5073083;28;20388;-89
2022/08/16 14:23:16;;;;;;;3.03;1.95;;;;;;;;;;5072353;28;20411;-91
2022/08/16 14:25:42;;;;;;;2.63;1.90;;;;;;;;;;5070108;28;20383;-90
2022/08/16 14:28:08;;;;;;;2.90;1.80;;;;;;;;;;5072512;28;20403;-89
2022/08/16 14:30:34;;;;;;;2.20;1.70;;;;;;;;;;5055313;28;20406;-89
2022/08/16 14:33:03;;;;;;;2.80;1.88;;;;;;;;;;5072619;28;20422;-89
2022/08/16 14:35:30;;;;;;;3.20;1.80;;;;;;;;;;5068472;28;20739;-89
2022/08/16 14:37:56;;;;;;;2.25;1.70;;;;;;;;;;5069043;28;20391;-90
2022/08/16 14:40:22;;;;;;;2.10;1.90;;;;;;;;;;5071896;28;20384;-89
2022/08/16 14:42:48;;;;;;;2.30;1.83;;;;;;;;;;5069085;28;20393;-89
2022/08/16 14:45:16;;;;;;;2.67;1.70;;;;;;;;;;5072601;28;20410;-89